createdAt,value
2022-09-28T00:01:17.513Z,99139.28
2022-09-28T00:03:45.452Z,99135.66
2022-09-28T00:06:13.709Z,99137.84
2022-09-28T00:08:40.755Z,99138.59
2022-09-28T00:11:11.101Z,99134.13
2022-09-28T00:13:37.760Z,99130.72
2022-09-28T00:16:11.465Z,99138.09
2022-09-28T00:18:37.916Z,99138.72
2022-09-28T00:21:06.462Z,99134.13
2022-09-28T00:23:33.305Z,99131.06
2022-09-28T00:26:06.371Z,99129.63
2022-09-28T00:28:32.772Z,99128.00
2022-09-28T00:30:59.335Z,99121.75
2022-09-28T00:33:25.945Z,99129.25
2022-09-28T00:35:57.169Z,99129.31
2022-09-28T00:38:27.489Z,99127.47
2022-09-28T00:40:55.766Z,99110.50
2022-09-28T00:43:23.610Z,99117.94
2022-09-28T00:46:06.473Z,99113.66
2022-09-28T00:48:36.259Z,99117.31
2022-09-28T00:51:09.045Z,99105.03
2022-09-28T00:53:38.418Z,99108.25
2022-09-28T00:56:09.391Z,99107.66
2022-09-28T00:58:46.863Z,99098.72
2022-09-28T01:01:13.871Z,99097.75
2022-09-28T01:03:45.160Z,99099.22
2022-09-28T01:06:23.713Z,99102.41
2022-09-28T01:08:53.220Z,99105.63
2022-09-28T01:11:19.817Z,99106.22
2022-09-28T01:13:48.067Z,99103.41
2022-09-28T01:16:23.652Z,99095.19
2022-09-28T01:19:29.028Z,99096.41
2022-09-28T01:22:07.415Z,99104.66
2022-09-28T01:24:43.237Z,99093.59
2022-09-28T01:27:26.617Z,99096.19
2022-09-28T01:30:09.414Z,99099.88
2022-09-28T01:32:55.150Z,99105.28
2022-09-28T01:35:24.677Z,99105.09
2022-09-28T01:38:01.732Z,99107.28
2022-09-28T01:40:30.196Z,99106.28
2022-09-28T01:43:08.423Z,99109.91
2022-09-28T01:45:46.406Z,99111.19
2022-09-28T01:48:18.579Z,99110.16
2022-09-28T01:50:49.061Z,99100.84
2022-09-28T01:53:22.268Z,99094.78
2022-09-28T01:55:55.363Z,99098.63
2022-09-28T01:59:07.966Z,99095.22
2022-09-28T02:01:41.073Z,99092.19
2022-09-28T02:04:14.260Z,99094.19
2022-09-28T02:06:56.746Z,99084.31
2022-09-28T02:09:33.897Z,99085.50
2022-09-28T02:12:06.466Z,99083.69
2022-09-28T02:14:36.383Z,99081.66
2022-09-28T02:17:03.280Z,99086.94
2022-09-28T02:19:31.064Z,99087.53
2022-09-28T02:22:23.133Z,99091.41
2022-09-28T02:24:59.717Z,99090.16
2022-09-28T02:27:36.320Z,99095.06
2022-09-28T02:30:05.453Z,99093.88
2022-09-28T02:32:34.000Z,99089.38
2022-09-28T02:35:00.426Z,99091.97
2022-09-28T02:37:27.527Z,99094.63
2022-09-28T02:39:53.900Z,99092.16
2022-09-28T02:42:25.713Z,99102.06
2022-09-28T02:45:16.191Z,99104.97
2022-09-28T02:48:12.999Z,99085.97
2022-09-28T02:50:57.616Z,99098.50
2022-09-28T02:53:47.003Z,99091.59
2022-09-28T02:56:33.985Z,99101.69
2022-09-28T02:59:21.094Z,99091.78
2022-09-28T03:02:05.089Z,99096.00
2022-09-28T03:04:48.930Z,99100.88
2022-09-28T03:07:24.705Z,99093.81
2022-09-28T03:10:12.591Z,99092.00
2022-09-28T03:12:39.492Z,99088.56
2022-09-28T03:15:10.122Z,99096.25
2022-09-28T03:17:36.886Z,99091.19
2022-09-28T03:20:04.937Z,99094.63
2022-09-28T03:22:31.513Z,99102.06
2022-09-28T03:24:57.891Z,99095.19
2022-09-28T03:27:24.256Z,99097.03
2022-09-28T03:29:50.618Z,99103.28
2022-09-28T03:32:17.115Z,99108.31
2022-09-28T03:34:43.495Z,99111.75
2022-09-28T03:37:09.855Z,99111.41
2022-09-28T03:39:36.764Z,99111.59
2022-09-28T03:42:03.299Z,99101.91
2022-09-28T03:44:29.641Z,99110.41
2022-09-28T03:46:56.096Z,99110.22
2022-09-28T03:49:22.420Z,99103.53
2022-09-28T03:51:48.838Z,99108.38
2022-09-28T03:54:15.187Z,99109.81
2022-09-28T03:56:41.556Z,99109.97
2022-09-28T03:59:07.912Z,99107.78
2022-09-28T04:01:34.393Z,99107.59
2022-09-28T04:04:00.988Z,99103.72
2022-09-28T04:06:27.713Z,99101.50
2022-09-28T04:08:54.060Z,99106.09
2022-09-28T04:11:20.473Z,99102.88
2022-09-28T04:13:50.345Z,99104.91
2022-09-28T04:16:17.865Z,99104.69
2022-09-28T04:18:44.476Z,99109.53
2022-09-28T04:21:12.476Z,99103.88
2022-09-28T04:23:40.254Z,99108.53
2022-09-28T04:26:09.217Z,99100.06
2022-09-28T04:28:54.156Z,99101.47
2022-09-28T04:31:23.449Z,99109.38
2022-09-28T04:33:50.075Z,99108.97
2022-09-28T04:36:16.532Z,99109.16
2022-09-28T04:38:56.038Z,99103.88
2022-09-28T04:41:22.772Z,99111.56
2022-09-28T04:43:50.238Z,99116.19
2022-09-28T04:46:16.927Z,99107.75
2022-09-28T04:48:43.451Z,99106.72
2022-09-28T04:51:09.854Z,99115.03
2022-09-28T04:53:36.225Z,99111.94
2022-09-28T04:56:11.611Z,99112.38
2022-09-28T04:58:38.711Z,99104.28
2022-09-28T05:01:07.969Z,99112.19
2022-09-28T05:03:34.451Z,99103.47
2022-09-28T05:06:01.474Z,99101.09
2022-09-28T05:08:28.335Z,99098.00
2022-09-28T05:11:03.208Z,99095.38
2022-09-28T05:13:30.567Z,99106.69
2022-09-28T05:16:03.060Z,99109.53
2022-09-28T05:18:32.145Z,99102.03
2022-09-28T05:20:58.504Z,99104.28
2022-09-28T05:23:24.883Z,99108.09
2022-09-28T05:25:51.422Z,99103.69
2022-09-28T05:28:25.175Z,99106.09
2022-09-28T05:30:52.168Z,99105.50
2022-09-28T05:33:18.585Z,99106.69
2022-09-28T05:35:45.031Z,99103.25
2022-09-28T05:38:11.469Z,99105.50
2022-09-28T05:40:37.951Z,99106.50
2022-09-28T05:43:04.319Z,99109.91
2022-09-28T05:45:30.785Z,99117.19
2022-09-28T05:47:57.260Z,99113.56
2022-09-28T05:50:24.288Z,99119.59
2022-09-28T05:53:05.136Z,99123.63
2022-09-28T05:55:32.403Z,99129.72
2022-09-28T05:58:00.249Z,99127.72
2022-09-28T06:00:31.022Z,99126.09
2022-09-28T06:03:08.971Z,99126.25
2022-09-28T06:05:36.923Z,99132.56
2022-09-28T06:08:08.126Z,99126.25
2022-09-28T06:10:34.621Z,99129.94
2022-09-28T06:13:01.716Z,99134.56
2022-09-28T06:15:30.861Z,99134.13
2022-09-28T06:18:01.045Z,99138.59
2022-09-28T06:20:31.025Z,99138.94
2022-09-28T06:22:57.448Z,99141.03
2022-09-28T06:25:24.815Z,99139.38
2022-09-28T06:27:58.923Z,99143.75
2022-09-28T06:30:27.034Z,99144.88
2022-09-28T06:32:55.386Z,99144.69
2022-09-28T06:35:26.050Z,99151.09
2022-09-28T06:37:53.755Z,99151.63
2022-09-28T06:40:21.140Z,99154.84
2022-09-28T06:43:11.994Z,99163.00
2022-09-28T06:45:38.720Z,99166.63
2022-09-28T06:48:06.309Z,99173.47
2022-09-28T06:50:41.122Z,99168.22
2022-09-28T06:53:10.370Z,99165.53
2022-09-28T06:55:39.750Z,99168.97
2022-09-28T06:58:09.453Z,99170.59
2022-09-28T07:00:37.418Z,99178.09
2022-09-28T07:03:06.335Z,99175.47
2022-09-28T07:05:36.722Z,99182.91
2022-09-28T07:08:04.511Z,99184.09
2022-09-28T07:10:31.753Z,99195.63
2022-09-28T07:13:05.363Z,99196.84
2022-09-28T07:15:33.475Z,99191.31
2022-09-28T07:18:03.695Z,99188.88
2022-09-28T07:20:40.821Z,99195.75
2022-09-28T07:23:19.027Z,99197.78
2022-09-28T07:25:47.970Z,99196.97
2022-09-28T07:28:15.517Z,99205.44
2022-09-28T07:30:43.233Z,99195.38
2022-09-28T07:33:12.518Z,99202.16
2022-09-28T07:35:39.202Z,99211.81
2022-09-28T07:38:06.996Z,99201.75
2022-09-28T07:40:53.910Z,99207.38
2022-09-28T07:43:21.505Z,99218.88
2022-09-28T07:45:49.932Z,99215.13
2022-09-28T07:48:17.161Z,99213.72
2022-09-28T07:50:51.705Z,99218.06
2022-09-28T07:53:23.593Z,99226.63
2022-09-28T07:56:02.058Z,99214.91
2022-09-28T07:58:28.482Z,99226.97
2022-09-28T08:00:54.939Z,99230.81
2022-09-28T08:03:24.392Z,99228.25
2022-09-28T08:05:50.725Z,99229.44
2022-09-28T08:08:18.459Z,99233.53
2022-09-28T08:10:47.112Z,99234.88
2022-09-28T08:13:15.066Z,99245.22
2022-09-28T08:15:42.526Z,99243.28
2022-09-28T08:18:09.371Z,99243.50
2022-09-28T08:20:54.292Z,99242.88
2022-09-28T08:23:20.773Z,99245.75
2022-09-28T08:25:48.991Z,99248.47
2022-09-28T08:28:19.798Z,99248.47
2022-09-28T08:30:47.378Z,99257.91
2022-09-28T08:33:15.366Z,99259.22
2022-09-28T08:35:42.081Z,99256.56
2022-09-28T08:38:09.385Z,99259.66
2022-09-28T08:40:55.502Z,99266.06
2022-09-28T08:43:49.629Z,99267.94
2022-09-28T08:46:23.907Z,99262.44
2022-09-28T08:49:23.782Z,99270.91
2022-09-28T08:52:05.842Z,99275.75
2022-09-28T08:54:43.057Z,99278.16
2022-09-28T08:57:15.355Z,99276.41
2022-09-28T08:59:44.797Z,99276.59
2022-09-28T09:02:33.853Z,99284.81
2022-09-28T09:05:04.037Z,99279.25
2022-09-28T09:07:52.160Z,99285.69
2022-09-28T09:11:01.961Z,99280.88
2022-09-28T09:13:50.242Z,99294.63
2022-09-28T09:16:46.766Z,99293.00
2022-09-28T09:19:25.869Z,99293.41
2022-09-28T09:22:02.325Z,99294.22
2022-09-28T09:24:47.932Z,99297.09
2022-09-28T09:27:30.067Z,99298.25
2022-09-28T09:30:19.345Z,99304.41
2022-09-28T09:32:50.671Z,99303.53
2022-09-28T09:35:40.900Z,99307.50
2022-09-28T09:38:29.948Z,99301.78
2022-09-28T09:41:04.852Z,99312.47
2022-09-28T09:43:43.038Z,99311.81
2022-09-28T09:46:50.304Z,99306.47
2022-09-28T09:49:22.400Z,99302.19
2022-09-28T09:51:57.968Z,99305.63
2022-09-28T09:54:24.267Z,99307.91
2022-09-28T09:57:13.741Z,99309.81
2022-09-28T09:59:42.095Z,99314.66
2022-09-28T10:02:25.697Z,99316.25
2022-09-28T10:04:57.471Z,99314.69
2022-09-28T10:07:29.623Z,99303.97
2022-09-28T10:09:58.448Z,99315.91
2022-09-28T10:12:25.924Z,99303.53
2022-09-28T10:14:54.154Z,99302.69
2022-09-28T10:17:26.727Z,99299.28
2022-09-28T10:19:55.866Z,99309.69
2022-09-28T10:22:25.017Z,99310.72
2022-09-28T10:24:57.562Z,99309.03
2022-09-28T10:27:35.226Z,99306.03
2022-09-28T10:30:08.145Z,99307.63
2022-09-28T10:32:39.549Z,99309.47
2022-09-28T10:35:42.372Z,99317.81
2022-09-28T10:38:18.512Z,99310.81
2022-09-28T10:40:49.705Z,99308.09
2022-09-28T10:43:29.003Z,99313.97
2022-09-28T10:46:06.226Z,99314.06
2022-09-28T10:48:50.616Z,99314.63
2022-09-28T10:51:17.334Z,99323.03
2022-09-28T10:53:59.476Z,99316.34
2022-09-28T10:56:29.269Z,99311.53
2022-09-28T10:58:56.025Z,99314.28
2022-09-28T11:01:32.957Z,99314.06
2022-09-28T11:04:07.561Z,99308.78
2022-09-28T11:06:39.162Z,99311.66
2022-09-28T11:09:23.996Z,99310.03
2022-09-28T11:11:51.944Z,99310.97
2022-09-28T11:14:21.061Z,99306.69
2022-09-28T11:16:47.437Z,99309.13
2022-09-28T11:19:20.323Z,99307.41
2022-09-28T11:21:46.755Z,99309.81
2022-09-28T11:24:19.065Z,99307.53
2022-09-28T11:26:48.387Z,99309.94
2022-09-28T11:29:34.477Z,99305.56
2022-09-28T11:32:03.595Z,99310.50
2022-09-28T11:34:58.115Z,99310.16
2022-09-28T11:37:37.598Z,99315.69
2022-09-28T11:40:39.726Z,99317.16
2022-09-28T11:43:47.824Z,99314.63
2022-09-28T11:46:28.966Z,99307.19
2022-09-28T11:49:01.616Z,99312.59
2022-09-28T11:51:33.759Z,99303.16
2022-09-28T11:54:14.281Z,99306.13
2022-09-28T11:56:45.970Z,99313.81
2022-09-28T11:59:27.636Z,99312.31
2022-09-28T12:02:01.043Z,99312.09
2022-09-28T12:04:33.203Z,99314.41
2022-09-28T12:07:03.531Z,99311.63
2022-09-28T12:09:53.944Z,99321.94
2022-09-28T12:12:31.450Z,99315.75
2022-09-28T12:15:05.295Z,99308.44
2022-09-28T12:17:42.855Z,99298.88
2022-09-28T12:20:22.357Z,99294.09
2022-09-28T12:23:05.076Z,99295.63
2022-09-28T12:25:46.204Z,99293.53
2022-09-28T12:28:25.692Z,99293.91
2022-09-28T12:30:53.333Z,99292.00
2022-09-28T12:33:20.228Z,99301.13
2022-09-28T12:36:04.929Z,99301.44
2022-09-28T12:39:08.420Z,99293.09
2022-09-28T12:41:53.963Z,99305.50
2022-09-28T12:44:54.725Z,99301.69
2022-09-28T12:47:44.992Z,99305.69
2022-09-28T12:50:53.936Z,99295.84
2022-09-28T12:53:35.181Z,99299.03
2022-09-28T12:56:08.449Z,99300.19
2022-09-28T12:59:00.005Z,99299.75
2022-09-28T13:01:32.310Z,99301.13
2022-09-28T13:04:17.765Z,99301.44
2022-09-28T13:07:01.710Z,99296.59
2022-09-28T13:09:38.890Z,99301.28
2022-09-28T13:12:17.459Z,99295.25
2022-09-28T13:15:02.041Z,99297.25
2022-09-28T13:17:42.602Z,99294.84
2022-09-28T13:20:23.228Z,99291.13
2022-09-28T13:23:02.307Z,99290.63
2022-09-28T13:25:34.169Z,99288.09
2022-09-28T13:28:06.734Z,99282.66
2022-09-28T13:30:38.772Z,99281.22
2022-09-28T13:33:07.705Z,99280.00
2022-09-28T13:35:34.872Z,99280.50
2022-09-28T13:38:17.351Z,99285.13
2022-09-28T13:41:05.395Z,99275.09
2022-09-28T13:44:04.119Z,99284.88
2022-09-28T13:46:59.367Z,99280.41
2022-09-28T13:50:11.579Z,99280.06
2022-09-28T13:52:40.654Z,99286.31
2022-09-28T13:55:25.372Z,99288.28
2022-09-28T13:57:59.962Z,99287.97
2022-09-28T14:00:31.024Z,99280.91
2022-09-28T14:03:01.310Z,99289.25
2022-09-28T14:05:34.294Z,99280.38
2022-09-28T14:08:20.815Z,99278.91
2022-09-28T14:10:52.154Z,99286.41
2022-09-28T14:14:11.777Z,99292.13
2022-09-28T14:16:40.260Z,99291.47
2022-09-28T14:19:24.258Z,99299.34
2022-09-28T14:22:06.344Z,99303.84
2022-09-28T14:24:47.751Z,99304.50
2022-09-28T14:27:17.054Z,99290.44
2022-09-28T14:29:43.727Z,99285.75
2022-09-28T14:32:22.566Z,99285.56
2022-09-28T14:35:00.906Z,99288.94
2022-09-28T14:37:51.067Z,99286.66
2022-09-28T14:40:49.768Z,99296.47
2022-09-28T14:43:38.074Z,99299.56
2022-09-28T14:46:13.340Z,99298.94
2022-09-28T14:49:15.412Z,99296.75
2022-09-28T14:51:43.542Z,99302.84
2022-09-28T14:54:13.016Z,99305.72
2022-09-28T14:56:45.977Z,99303.22
2022-09-28T14:59:36.298Z,99314.75
2022-09-28T15:02:15.647Z,99314.06
2022-09-28T15:04:51.474Z,99318.25
2022-09-28T15:07:26.792Z,99320.81
2022-09-28T15:09:56.023Z,99317.59
2022-09-28T15:12:30.731Z,99329.69
2022-09-28T15:15:07.750Z,99322.41
2022-09-28T15:17:40.330Z,99338.16
2022-09-28T15:20:26.286Z,99339.81
2022-09-28T15:22:58.063Z,99351.03
2022-09-28T15:25:30.330Z,99359.63
2022-09-28T15:28:04.763Z,99359.75
2022-09-28T15:30:36.621Z,99354.13
2022-09-28T15:33:23.836Z,99351.84
2022-09-28T15:36:02.248Z,99348.75
2022-09-28T15:38:34.614Z,99359.63
2022-09-28T15:41:05.437Z,99363.66
2022-09-28T15:43:34.712Z,99369.16
2022-09-28T15:46:16.910Z,99369.47
2022-09-28T15:49:04.801Z,99384.28
2022-09-28T15:51:45.020Z,99388.41
2022-09-28T15:54:20.175Z,99412.84
2022-09-28T15:56:52.858Z,99416.19
2022-09-28T15:59:27.245Z,99418.31
2022-09-28T16:02:09.760Z,99418.16
2022-09-28T16:04:47.867Z,99420.41
2022-09-28T16:07:19.288Z,99420.78
2022-09-28T16:09:55.726Z,99421.81
2022-09-28T16:12:23.929Z,99418.19
2022-09-28T16:14:55.858Z,99426.09
2022-09-28T16:17:32.701Z,99430.19
2022-09-28T16:20:03.630Z,99431.19
2022-09-28T16:22:34.156Z,99434.22
2022-09-28T16:25:01.264Z,99435.31
2022-09-28T16:27:41.412Z,99434.34
2022-09-28T16:30:27.214Z,99429.72
2022-09-28T16:32:56.420Z,99429.41
2022-09-28T16:35:31.722Z,99429.75
2022-09-28T16:38:00.525Z,99423.78
2022-09-28T16:40:27.646Z,99431.66
2022-09-28T16:42:58.541Z,99426.84
2022-09-28T16:45:25.007Z,99425.88
2022-09-28T16:47:52.357Z,99437.75
2022-09-28T16:50:22.880Z,99442.91
2022-09-28T16:53:32.726Z,99443.00
2022-09-28T16:56:00.384Z,99437.75
2022-09-28T16:58:27.717Z,99442.00
2022-09-28T17:00:54.800Z,99444.31
2022-09-28T17:03:23.616Z,99447.84
2022-09-28T17:05:52.708Z,99446.84
2022-09-28T17:08:22.133Z,99453.53
2022-09-28T17:13:45.066Z,99452.97
2022-09-28T17:16:42.963Z,99454.38
2022-09-28T17:19:26.733Z,99451.97
2022-09-28T17:21:53.352Z,99449.94
2022-09-28T17:24:20.246Z,99440.19
2022-09-28T17:26:49.191Z,99438.38
2022-09-28T17:29:15.951Z,99436.34
2022-09-28T17:31:44.456Z,99441.00
2022-09-28T17:34:12.770Z,99433.25
2022-09-28T17:36:41.682Z,99433.47
2022-09-28T17:39:18.364Z,99430.88
2022-09-28T17:41:45.330Z,99437.38
2022-09-28T17:44:16.109Z,99441.22
2022-09-28T17:46:46.242Z,99442.28
2022-09-28T17:49:13.070Z,99439.03
2022-09-28T17:51:39.488Z,99437.22
2022-09-28T17:54:07.949Z,99443.28
2022-09-28T17:56:35.544Z,99448.75
2022-09-28T17:59:04.903Z,99446.28
2022-09-28T18:01:34.584Z,99446.94
2022-09-28T18:04:02.617Z,99444.25
2022-09-28T18:06:29.089Z,99453.78
2022-09-28T18:08:55.567Z,99447.22
2022-09-28T18:11:22.417Z,99451.06
2022-09-28T18:13:48.791Z,99459.44
2022-09-28T18:16:15.734Z,99462.66
2022-09-28T18:18:42.212Z,99461.69
2022-09-28T18:21:09.446Z,99468.19
2022-09-28T18:23:38.465Z,99476.88
2022-09-28T18:26:11.123Z,99467.00
2022-09-28T18:28:37.762Z,99469.81
2022-09-28T18:31:13.266Z,99476.25
2022-09-28T18:33:40.655Z,99473.47
2022-09-28T18:36:08.368Z,99481.41
2022-09-28T18:38:36.405Z,99484.25
2022-09-28T18:41:17.142Z,99476.16
2022-09-28T18:43:51.536Z,99481.41
2022-09-28T18:46:18.670Z,99481.22
2022-09-28T18:48:46.275Z,99484.66
2022-09-28T18:51:12.773Z,99484.28
2022-09-28T18:53:40.396Z,99489.53
2022-09-28T18:56:15.390Z,99495.16
2022-09-28T18:58:42.778Z,99491.53
2022-09-28T19:01:36.013Z,99493.13
2022-09-28T19:04:05.380Z,99503.88
2022-09-28T19:06:32.083Z,99499.44
2022-09-28T19:08:59.174Z,99494.97
2022-09-28T19:11:26.092Z,99493.38
2022-09-28T19:13:54.334Z,99499.03
2022-09-28T19:16:24.344Z,99493.38
2022-09-28T19:18:52.333Z,99498.03
2022-09-28T19:21:19.519Z,99505.91
2022-09-28T19:23:49.296Z,99498.63
2022-09-28T19:26:20.835Z,99504.09
2022-09-28T19:28:48.132Z,99506.50
2022-09-28T19:31:15.317Z,99494.59
2022-09-28T19:33:41.767Z,99510.88
2022-09-28T19:36:11.316Z,99505.06
2022-09-28T19:38:39.491Z,99512.13
2022-09-28T19:41:39.064Z,99520.19
2022-09-28T19:44:28.641Z,99516.72
2022-09-28T19:46:59.971Z,99524.19
2022-09-28T19:49:27.791Z,99525.59
2022-09-28T19:52:14.410Z,99527.25
2022-09-28T19:54:44.423Z,99525.34
2022-09-28T19:57:12.016Z,99526.72
2022-09-28T19:59:39.034Z,99524.53
2022-09-28T20:02:06.815Z,99526.56
2022-09-28T20:04:33.219Z,99530.00
2022-09-28T20:07:00.172Z,99535.81
2022-09-28T20:09:26.537Z,99532.78
2022-09-28T20:11:53.159Z,99537.59
2022-09-28T20:14:19.633Z,99534.59
2022-09-28T20:16:48.957Z,99534.59
2022-09-28T20:19:15.714Z,99545.44
2022-09-28T20:21:42.106Z,99542.28
2022-09-28T20:24:11.295Z,99537.44
2022-09-28T20:26:37.915Z,99538.63
2022-09-28T20:29:05.506Z,99542.03
2022-09-28T20:31:31.947Z,99536.56
2022-09-28T20:33:58.385Z,99544.59
2022-09-28T20:36:25.691Z,99545.22
2022-09-28T20:38:54.203Z,99542.09
2022-09-28T20:41:22.946Z,99545.59
2022-09-28T20:43:56.651Z,99542.16
2022-09-28T20:46:23.393Z,99544.59
2022-09-28T20:48:50.731Z,99549.41
2022-09-28T20:51:19.470Z,99547.34
2022-09-28T20:53:50.851Z,99540.94
2022-09-28T20:56:19.085Z,99549.81
2022-09-28T20:58:45.504Z,99542.09
2022-09-28T21:01:23.742Z,99545.19
2022-09-28T21:04:01.247Z,99551.59
2022-09-28T21:06:33.343Z,99548.53
2022-09-28T21:09:00.008Z,99545.16
2022-09-28T21:11:28.126Z,99547.81
2022-09-28T21:13:57.062Z,99546.56
2022-09-28T21:16:23.872Z,99547.69
2022-09-28T21:18:53.068Z,99551.16
2022-09-28T21:21:21.635Z,99555.34
2022-09-28T21:23:48.381Z,99547.47
2022-09-28T21:26:24.457Z,99539.63
2022-09-28T21:28:58.618Z,99549.31
2022-09-28T21:31:29.595Z,99547.84
2022-09-28T21:33:57.458Z,99551.25
2022-09-28T21:36:24.774Z,99546.81
2022-09-28T21:38:51.248Z,99556.69
2022-09-28T21:41:17.610Z,99555.44
2022-09-28T21:43:45.432Z,99559.06
2022-09-28T21:46:11.976Z,99568.56
2022-09-28T21:48:38.467Z,99568.72
2022-09-28T21:51:07.594Z,99567.53
2022-09-28T21:53:36.505Z,99562.06
2022-09-28T21:56:05.597Z,99556.59
2022-09-28T21:58:34.082Z,99561.69
2022-09-28T22:01:03.523Z,99561.25
2022-09-28T22:03:31.515Z,99555.16
2022-09-28T22:05:58.175Z,99562.44
2022-09-28T22:08:25.547Z,99563.25
2022-09-28T22:11:02.896Z,99562.28
2022-09-28T22:13:31.292Z,99563.47
2022-09-28T22:15:58.785Z,99563.41
2022-09-28T22:18:29.680Z,99568.47
2022-09-28T22:21:03.342Z,99564.97
2022-09-28T22:23:30.224Z,99562.91
2022-09-28T22:26:02.218Z,99566.88
2022-09-28T22:28:29.208Z,99569.69
2022-09-28T22:30:56.440Z,99566.53
2022-09-28T22:33:23.048Z,99562.69
2022-09-28T22:35:51.113Z,99576.16
2022-09-28T22:38:18.589Z,99568.09
2022-09-28T22:40:54.415Z,99564.50
2022-09-28T22:43:23.381Z,99565.88
2022-09-28T22:45:49.941Z,99573.75
2022-09-28T22:48:16.383Z,99565.50
2022-09-28T22:50:52.015Z,99560.69
2022-09-28T22:53:19.183Z,99567.13
2022-09-28T22:55:45.625Z,99563.69
2022-09-28T22:58:12.333Z,99564.50
2022-09-28T23:00:38.954Z,99567.88
2022-09-28T23:03:05.537Z,99568.13
2022-09-28T23:05:32.058Z,99567.31
2022-09-28T23:07:58.666Z,99560.06
2022-09-28T23:10:25.127Z,99557.06
2022-09-28T23:12:53.367Z,99556.69
2022-09-28T23:15:20.202Z,99560.38
2022-09-28T23:17:51.671Z,99559.97
2022-09-28T23:20:19.017Z,99565.00
2022-09-28T23:22:47.508Z,99560.41
2022-09-28T23:25:15.300Z,99564.03
2022-09-28T23:27:47.797Z,99563.63
2022-09-28T23:30:15.812Z,99567.53
2022-09-28T23:32:42.375Z,99559.00
2022-09-28T23:35:09.584Z,99569.09
2022-09-28T23:37:36.467Z,99562.84
2022-09-28T23:40:04.264Z,99564.66
2022-09-28T23:42:30.826Z,99556.38
2022-09-28T23:44:57.370Z,99555.78
2022-09-28T23:47:23.861Z,99562.84
2022-09-28T23:49:50.305Z,99564.69
2022-09-28T23:52:16.665Z,99575.38
2022-09-28T23:54:42.974Z,99570.34
2022-09-28T23:57:11.799Z,99573.19
2022-09-28T23:59:38.597Z,99567.06
